createdAt,value
2022-11-05T00:01:08.727Z,98668.59
2022-11-05T00:03:58.306Z,98664.34
2022-11-05T00:06:45.261Z,98667.22
2022-11-05T00:09:31.926Z,98669.75
2022-11-05T00:12:25.324Z,98672.06
2022-11-05T00:15:11.710Z,98680.25
2022-11-05T00:17:40.576Z,98678.16
2022-11-05T00:20:11.994Z,98677.88
2022-11-05T00:23:00.267Z,98691.41
2022-11-05T00:25:30.138Z,98694.00
2022-11-05T00:28:01.253Z,98696.25
2022-11-05T00:30:29.627Z,98692.25
2022-11-05T00:33:03.319Z,98700.50
2022-11-05T00:35:32.064Z,98702.41
2022-11-05T00:38:00.036Z,98708.19
2022-11-05T00:40:27.348Z,98707.78
2022-11-05T00:43:14.769Z,98713.06
2022-11-05T00:45:42.074Z,98719.28
2022-11-05T00:48:27.876Z,98712.06
2022-11-05T00:50:57.673Z,98716.34
2022-11-05T00:53:27.180Z,98718.19
2022-11-05T00:55:57.103Z,98717.47
2022-11-05T00:58:24.855Z,98718.31
2022-11-05T01:00:55.088Z,98721.38
2022-11-05T01:03:28.741Z,98730.72
2022-11-05T01:06:16.760Z,98736.38
2022-11-05T01:08:46.211Z,98738.75
2022-11-05T01:11:33.749Z,98723.69
2022-11-05T01:14:09.335Z,98732.53
2022-11-05T01:16:39.366Z,98739.94
2022-11-05T01:19:10.527Z,98735.00
2022-11-05T01:21:39.478Z,98743.00
2022-11-05T01:24:08.669Z,98743.28
2022-11-05T01:26:36.076Z,98742.75
2022-11-05T01:29:04.780Z,98740.81
2022-11-05T01:31:33.555Z,98742.34
2022-11-05T01:34:02.880Z,98730.44
2022-11-05T01:36:30.180Z,98743.44
2022-11-05T01:38:58.818Z,98743.03
2022-11-05T01:41:26.144Z,98738.19
2022-11-05T01:43:55.993Z,98747.97
2022-11-05T01:46:37.667Z,98746.06
2022-11-05T01:49:21.114Z,98755.97
2022-11-05T01:51:49.533Z,98749.38
2022-11-05T01:54:19.311Z,98758.19
2022-11-05T01:56:51.757Z,98761.22
2022-11-05T01:59:35.370Z,98759.44
2022-11-05T02:02:03.393Z,98764.25
2022-11-05T02:04:38.081Z,98763.16
2022-11-05T02:07:06.589Z,98755.97
2022-11-05T02:09:58.900Z,98759.59
2022-11-05T02:12:35.417Z,98755.19
2022-11-05T02:15:04.004Z,98763.47
2022-11-05T02:17:42.930Z,98761.63
2022-11-05T02:20:55.717Z,98770.03
2022-11-05T02:23:48.194Z,98770.03
2022-11-05T02:26:56.631Z,98768.97
2022-11-05T02:30:26.439Z,98779.88
2022-11-05T02:32:56.423Z,98776.81
2022-11-05T02:35:57.146Z,98773.94
2022-11-05T02:38:40.420Z,98775.44
2022-11-05T02:41:18.962Z,98778.59
2022-11-05T02:44:04.285Z,98783.53
2022-11-05T02:47:18.271Z,98785.22
2022-11-05T02:50:19.118Z,98784.81
2022-11-05T02:53:02.117Z,98783.03
2022-11-05T02:55:37.966Z,98790.47
2022-11-05T02:58:07.090Z,98785.78
2022-11-05T03:00:41.019Z,98777.78
2022-11-05T03:03:21.470Z,98782.59
2022-11-05T03:06:00.940Z,98787.31
2022-11-05T03:09:12.445Z,98796.81
2022-11-05T03:12:05.463Z,98787.03
2022-11-05T03:14:45.605Z,98792.66
2022-11-05T03:17:43.422Z,98793.09
2022-11-05T03:20:24.762Z,98793.50
2022-11-05T03:22:57.006Z,98802.88
2022-11-05T03:25:25.851Z,98802.06
2022-11-05T03:27:59.389Z,98810.88
2022-11-05T03:30:26.454Z,98809.22
2022-11-05T03:33:02.654Z,98808.00
2022-11-05T03:35:33.375Z,98805.75
2022-11-05T03:38:04.799Z,98807.03
2022-11-05T03:40:36.575Z,98813.63
2022-11-05T03:43:08.603Z,98813.63
2022-11-05T03:45:44.984Z,98808.53
2022-11-05T03:48:15.980Z,98811.84
2022-11-05T03:50:50.310Z,98822.63
2022-11-05T03:53:34.331Z,98815.00
2022-11-05T03:56:31.243Z,98828.25
2022-11-05T03:59:06.621Z,98830.16
2022-11-05T04:01:37.563Z,98834.03
2022-11-05T04:04:10.307Z,98845.78
2022-11-05T04:06:58.100Z,98845.66
2022-11-05T04:09:43.759Z,98851.69
2022-11-05T04:12:30.402Z,98853.50
2022-11-05T04:14:57.442Z,98859.97
2022-11-05T04:17:26.679Z,98861.78
2022-11-05T04:20:13.492Z,98865.22
2022-11-05T04:23:02.098Z,98874.88
2022-11-05T04:25:32.776Z,98876.00
2022-11-05T04:28:02.234Z,98871.44
2022-11-05T04:30:31.943Z,98884.78
2022-11-05T04:33:16.274Z,98879.03
2022-11-05T04:35:48.522Z,98883.84
2022-11-05T04:38:18.709Z,98889.22
2022-11-05T04:40:48.253Z,98881.47
2022-11-05T04:43:19.667Z,98891.16
2022-11-05T04:45:49.128Z,98893.78
2022-11-05T04:48:16.695Z,98884.53
2022-11-05T04:50:45.105Z,98892.81
2022-11-05T04:53:13.304Z,98882.06
2022-11-05T04:55:40.964Z,98895.56
2022-11-05T04:58:12.304Z,98890.63
2022-11-05T05:00:41.149Z,98892.13
2022-11-05T05:03:11.261Z,98889.50
2022-11-05T05:05:41.346Z,98894.72
2022-11-05T05:08:09.081Z,98901.06
2022-11-05T05:10:39.863Z,98901.09
2022-11-05T05:13:11.973Z,98900.94
2022-11-05T05:15:43.683Z,98904.53
2022-11-05T05:18:12.299Z,98908.00
2022-11-05T05:21:02.209Z,98897.63
2022-11-05T05:23:32.338Z,98910.75
2022-11-05T05:26:02.421Z,98905.06
2022-11-05T05:28:29.918Z,98908.53
2022-11-05T05:31:01.545Z,98904.94
2022-11-05T05:33:29.686Z,98912.94
2022-11-05T05:36:00.533Z,98914.59
2022-11-05T05:38:28.891Z,98917.50
2022-11-05T05:41:01.344Z,98914.72
2022-11-05T05:43:37.035Z,98922.03
2022-11-05T05:46:11.719Z,98921.47
2022-11-05T05:48:41.126Z,98922.72
2022-11-05T05:51:12.152Z,98928.38
2022-11-05T05:53:40.807Z,98929.88
2022-11-05T05:56:10.102Z,98929.16
2022-11-05T05:58:43.158Z,98936.88
2022-11-05T06:01:18.855Z,98935.50
2022-11-05T06:03:50.023Z,98941.28
2022-11-05T06:06:22.084Z,98940.41
2022-11-05T06:08:50.673Z,98944.78
2022-11-05T06:11:19.844Z,98952.66
2022-11-05T06:13:46.981Z,98950.56
2022-11-05T06:16:14.247Z,98954.47
2022-11-05T06:18:41.971Z,98961.09
2022-11-05T06:21:12.691Z,98963.09
2022-11-05T06:23:41.329Z,98965.19
2022-11-05T06:26:15.085Z,98965.78
2022-11-05T06:28:43.523Z,98968.63
2022-11-05T06:31:11.953Z,98966.56
2022-11-05T06:33:40.475Z,98967.78
2022-11-05T06:36:08.945Z,98973.47
2022-11-05T06:38:37.497Z,98979.84
2022-11-05T06:41:10.594Z,98978.34
2022-11-05T06:43:42.005Z,98992.69
2022-11-05T06:46:11.064Z,98993.66
2022-11-05T06:48:40.590Z,98993.44
2022-11-05T06:51:11.180Z,98997.66
2022-11-05T06:53:40.412Z,98996.59
2022-11-05T06:56:09.272Z,99002.16
2022-11-05T06:58:37.316Z,99007.94
2022-11-05T07:01:09.263Z,99010.03
2022-11-05T07:03:37.921Z,99019.84
2022-11-05T07:06:05.616Z,99025.16
2022-11-05T07:08:35.636Z,99027.06
2022-11-05T07:11:04.187Z,99022.25
2022-11-05T07:13:35.346Z,99030.78
2022-11-05T07:16:04.246Z,99029.44
2022-11-05T07:18:34.226Z,99029.84
2022-11-05T07:21:02.873Z,99040.34
2022-11-05T07:23:31.707Z,99040.34
2022-11-05T07:26:00.605Z,99049.41
2022-11-05T07:28:27.791Z,99060.22
2022-11-05T07:30:55.379Z,99058.28
2022-11-05T07:33:26.830Z,99065.91
2022-11-05T07:35:57.499Z,99057.09
2022-11-05T07:38:27.842Z,99063.88
2022-11-05T07:40:59.756Z,99067.47
2022-11-05T07:43:28.408Z,99069.53
2022-11-05T07:45:58.028Z,99072.06
2022-11-05T07:48:25.834Z,99078.25
2022-11-05T07:50:53.699Z,99088.19
2022-11-05T07:53:23.967Z,99096.63
2022-11-05T07:55:53.288Z,99096.50
2022-11-05T07:58:20.477Z,99104.09
2022-11-05T08:00:50.164Z,99103.94
2022-11-05T08:03:21.791Z,99106.03
2022-11-05T08:05:52.639Z,99115.03
2022-11-05T08:08:24.706Z,99118.34
2022-11-05T08:10:54.134Z,99117.97
2022-11-05T08:13:23.237Z,99125.84
2022-11-05T08:15:52.450Z,99127.50
2022-11-05T08:18:21.304Z,99132.16
2022-11-05T08:20:49.091Z,99125.56
2022-11-05T08:23:16.433Z,99123.63
2022-11-05T08:25:47.866Z,99128.38
2022-11-05T08:28:17.506Z,99129.78
2022-11-05T08:30:49.445Z,99119.53
2022-11-05T08:33:19.386Z,99131.56
2022-11-05T08:35:49.226Z,99139.28
2022-11-05T08:38:19.748Z,99137.50
2022-11-05T08:40:55.566Z,99132.81
2022-11-05T08:43:23.925Z,99143.00
2022-11-05T08:45:53.288Z,99142.22
2022-11-05T08:48:22.964Z,99142.09
2022-11-05T08:50:50.193Z,99146.66
2022-11-05T08:53:18.733Z,99153.44
2022-11-05T08:55:48.524Z,99155.47
2022-11-05T08:58:20.747Z,99162.09
2022-11-05T09:00:50.741Z,99155.34
2022-11-05T09:03:19.878Z,99154.09
2022-11-05T09:05:47.506Z,99162.94
2022-11-05T09:08:17.211Z,99170.16
2022-11-05T09:10:46.824Z,99173.72
2022-11-05T09:13:19.757Z,99174.56
2022-11-05T09:15:50.557Z,99169.97
2022-11-05T09:18:20.014Z,99171.50
2022-11-05T09:20:49.803Z,99171.38
2022-11-05T09:23:19.605Z,99169.59
2022-11-05T09:25:48.439Z,99179.00
2022-11-05T09:28:22.952Z,99175.94
2022-11-05T09:30:54.772Z,99187.84
2022-11-05T09:33:25.170Z,99189.50
2022-11-05T09:35:53.986Z,99190.03
2022-11-05T09:38:23.599Z,99190.72
2022-11-05T09:41:20.405Z,99197.22
2022-11-05T09:44:03.950Z,99200.00
2022-11-05T09:47:02.243Z,99198.75
2022-11-05T09:49:51.238Z,99193.94
2022-11-05T09:52:22.645Z,99196.69
2022-11-05T09:54:50.986Z,99198.91
2022-11-05T09:57:22.345Z,99192.94
2022-11-05T09:59:54.126Z,99194.47
2022-11-05T10:02:25.805Z,99200.69
2022-11-05T10:05:20.010Z,99198.88
2022-11-05T10:07:51.975Z,99208.97
2022-11-05T10:10:33.267Z,99215.59
2022-11-05T10:13:14.438Z,99216.56
2022-11-05T10:16:20.325Z,99212.38
2022-11-05T10:19:24.724Z,99215.72
2022-11-05T10:22:20.041Z,99210.44
2022-11-05T10:24:51.218Z,99216.81
2022-11-05T10:27:40.272Z,99218.19
2022-11-05T10:30:31.070Z,99216.53
2022-11-05T10:33:05.756Z,99221.81
2022-11-05T10:35:36.345Z,99211.28
2022-11-05T10:38:03.957Z,99210.31
2022-11-05T10:41:07.353Z,99212.72
2022-11-05T10:43:51.875Z,99215.34
2022-11-05T10:46:31.749Z,99217.25
2022-11-05T10:49:10.785Z,99209.78
2022-11-05T10:52:03.601Z,99218.63
2022-11-05T10:54:45.880Z,99225.75
2022-11-05T11:01:12.415Z,99215.94
2022-11-05T11:03:54.376Z,99213.44
2022-11-05T11:06:47.806Z,99211.09
2022-11-05T11:09:28.907Z,99213.88
2022-11-05T11:12:02.067Z,99204.28
2022-11-05T11:14:29.954Z,99210.63
2022-11-05T11:17:30.102Z,99209.38
2022-11-05T11:20:30.686Z,99204.38
2022-11-05T11:23:06.989Z,99203.06
2022-11-05T11:26:04.049Z,99210.69
2022-11-05T11:28:48.829Z,99210.56
2022-11-05T11:31:22.061Z,99207.66
2022-11-05T11:34:12.535Z,99206.34
2022-11-05T11:36:47.400Z,99209.44
2022-11-05T11:39:21.366Z,99200.19
2022-11-05T11:41:57.223Z,99199.13
2022-11-05T11:44:31.540Z,99198.47
2022-11-05T11:47:04.689Z,99195.00
2022-11-05T11:49:52.600Z,99201.88
2022-11-05T11:52:34.662Z,99198.91
2022-11-05T11:55:23.253Z,99198.66
2022-11-05T11:58:05.698Z,99198.94
2022-11-05T12:00:41.769Z,99204.72
2022-11-05T12:03:57.668Z,99196.66
2022-11-05T12:06:41.584Z,99186.94
2022-11-05T12:09:30.860Z,99191.53
2022-11-05T12:12:06.469Z,99184.78
2022-11-05T12:14:59.982Z,99195.25
2022-11-05T12:17:44.575Z,99188.69
2022-11-05T12:20:32.357Z,99188.84
2022-11-05T12:23:35.541Z,99185.53
2022-11-05T12:26:54.219Z,99184.47
2022-11-05T12:29:54.578Z,99180.56
2022-11-05T12:32:27.638Z,99179.66
2022-11-05T12:35:18.967Z,99176.88
2022-11-05T12:38:21.316Z,99175.66
2022-11-05T12:41:19.173Z,99174.06
2022-11-05T12:44:29.096Z,99175.19
2022-11-05T12:47:21.049Z,99173.31
2022-11-05T12:50:24.690Z,99171.50
2022-11-05T13:02:45.580Z,99162.28
2022-11-05T13:05:36.883Z,99163.97
2022-11-05T13:17:50.861Z,99161.72
2022-11-05T13:20:26.258Z,99168.84
2022-11-05T13:23:13.243Z,99169.69
2022-11-05T13:25:47.280Z,99164.56
2022-11-05T13:28:14.717Z,99166.53
2022-11-05T13:30:48.111Z,99167.16
2022-11-05T13:33:20.240Z,99168.53
2022-11-05T13:36:50.227Z,99169.88
2022-11-05T13:39:25.203Z,99169.50
2022-11-05T13:42:09.230Z,99174.31
2022-11-05T13:44:54.578Z,99172.00
2022-11-05T13:48:07.424Z,99172.53
2022-11-05T13:50:49.689Z,99178.06
2022-11-05T13:53:28.919Z,99180.69
2022-11-05T13:56:04.012Z,99175.22
2022-11-05T13:59:17.284Z,99184.06
2022-11-05T14:01:53.673Z,99181.50
2022-11-05T14:04:49.996Z,99178.13
2022-11-05T14:07:22.823Z,99182.34
2022-11-05T14:10:30.705Z,99183.50
2022-11-05T14:13:00.497Z,99182.19
2022-11-05T14:15:33.988Z,99172.13
2022-11-05T14:18:04.821Z,99176.34
2022-11-05T14:20:48.356Z,99176.28
2022-11-05T14:23:39.913Z,99180.88
2022-11-05T14:26:21.889Z,99175.94
2022-11-05T14:29:17.847Z,99174.03
2022-11-05T14:32:08.993Z,99178.38
2022-11-05T14:35:08.798Z,99181.09
2022-11-05T14:37:52.901Z,99186.13
2022-11-05T14:40:43.291Z,99183.13
2022-11-05T14:43:34.155Z,99188.22
2022-11-05T14:46:08.838Z,99187.13
2022-11-05T14:49:13.355Z,99199.91
2022-11-05T14:51:50.029Z,99190.63
2022-11-05T14:54:28.650Z,99195.34
2022-11-05T14:56:59.161Z,99202.53
2022-11-05T14:59:53.007Z,99202.28
2022-11-05T15:02:28.509Z,99208.78
2022-11-05T15:05:51.052Z,99203.97
2022-11-05T15:08:36.738Z,99210.09
2022-11-05T15:11:18.336Z,99221.91
2022-11-05T15:14:02.759Z,99213.72
2022-11-05T15:16:41.869Z,99203.91
2022-11-05T15:19:27.788Z,99209.81
2022-11-05T15:21:59.804Z,99216.50
2022-11-05T15:24:29.952Z,99210.16
2022-11-05T15:27:41.031Z,99221.47
2022-11-05T15:30:26.459Z,99217.09
2022-11-05T15:32:53.463Z,99219.03
2022-11-05T15:35:27.681Z,99217.41
2022-11-05T15:38:01.417Z,99227.19
2022-11-05T15:40:34.651Z,99226.63
2022-11-05T15:43:23.323Z,99221.50
2022-11-05T15:46:30.240Z,99220.03
2022-11-05T15:49:19.124Z,99228.19
2022-11-05T15:51:48.211Z,99224.13
2022-11-05T15:54:36.051Z,99232.59
2022-11-05T15:57:04.893Z,99233.97
2022-11-05T15:59:35.737Z,99230.41
2022-11-05T16:02:29.187Z,99234.25
2022-11-05T16:04:59.063Z,99225.25
2022-11-05T16:07:29.046Z,99220.16
2022-11-05T16:10:28.598Z,99219.31
2022-11-05T16:13:34.741Z,99225.28
2022-11-05T16:16:23.891Z,99222.91
2022-11-05T16:18:51.984Z,99222.66
2022-11-05T16:21:25.651Z,99215.50
2022-11-05T16:23:57.671Z,99217.97
2022-11-05T16:27:01.720Z,99215.88
2022-11-05T16:29:39.406Z,99215.63
2022-11-05T16:32:31.354Z,99221.00
2022-11-05T16:35:03.981Z,99231.53
2022-11-05T16:37:50.710Z,99228.22
2022-11-05T16:40:33.882Z,99234.97
2022-11-05T16:43:17.709Z,99245.22
2022-11-05T16:45:45.466Z,99245.75
2022-11-05T16:48:15.500Z,99238.97
2022-11-05T16:50:45.623Z,99245.34
2022-11-05T16:53:15.139Z,99247.97
2022-11-05T16:55:46.981Z,99234.94
2022-11-05T16:58:24.969Z,99246.84
2022-11-05T17:00:58.546Z,99248.22
2022-11-05T17:03:25.975Z,99243.78
2022-11-05T17:05:55.260Z,99234.78
2022-11-05T17:08:22.444Z,99237.28
2022-11-05T17:10:53.200Z,99238.91
2022-11-05T17:13:21.985Z,99245.50
2022-11-05T17:15:51.910Z,99249.66
2022-11-05T17:18:22.361Z,99256.41
2022-11-05T17:20:53.322Z,99247.41
2022-11-05T17:23:24.473Z,99240.09
2022-11-05T17:25:54.892Z,99251.25
2022-11-05T17:28:27.296Z,99255.22
2022-11-05T17:30:57.835Z,99258.78
2022-11-05T17:33:24.850Z,99260.09
2022-11-05T17:35:53.631Z,99259.28
2022-11-05T17:38:22.304Z,99271.97
2022-11-05T17:40:51.597Z,99271.69
2022-11-05T17:43:23.029Z,99277.09
2022-11-05T17:45:54.163Z,99280.28
2022-11-05T17:48:22.036Z,99285.06
2022-11-05T17:50:55.375Z,99290.41
2022-11-05T17:53:23.921Z,99285.19
2022-11-05T17:55:54.991Z,99281.28
2022-11-05T17:58:24.051Z,99277.38
2022-11-05T18:00:54.230Z,99294.19
2022-11-05T18:03:22.554Z,99293.97
2022-11-05T18:05:53.746Z,99301.47
2022-11-05T18:08:27.691Z,99310.53
2022-11-05T18:10:57.371Z,99305.81
2022-11-05T18:13:28.615Z,99305.03
2022-11-05T18:15:58.245Z,99303.66
2022-11-05T18:18:26.832Z,99300.56
2022-11-05T18:21:00.492Z,99299.22
2022-11-05T18:23:27.591Z,99308.88
2022-11-05T18:25:55.134Z,99302.81
2022-11-05T18:28:26.728Z,99299.50
2022-11-05T18:31:01.487Z,99291.41
2022-11-05T18:33:31.716Z,99302.69
2022-11-05T18:36:01.503Z,99300.50
2022-11-05T18:38:32.578Z,99303.69
2022-11-05T18:41:07.263Z,99306.28
2022-11-05T18:43:36.569Z,99304.19
2022-11-05T18:46:06.908Z,99300.88
2022-11-05T18:48:37.359Z,99309.19
2022-11-05T18:51:22.607Z,99299.44
2022-11-05T18:53:51.264Z,99312.56
2022-11-05T18:56:24.671Z,99307.81
2022-11-05T18:59:21.804Z,99317.78
2022-11-05T19:01:45.335Z,99308.66
2022-11-05T19:04:18.023Z,99315.00
2022-11-05T19:06:52.668Z,99303.78
2022-11-05T19:09:23.340Z,99302.88
2022-11-05T19:11:55.909Z,99301.66
2022-11-05T19:14:26.209Z,99295.00
2022-11-05T19:17:15.706Z,99298.34
2022-11-05T19:19:50.749Z,99298.84
2022-11-05T19:22:23.943Z,99300.44
2022-11-05T19:24:55.176Z,99306.16
2022-11-05T19:27:28.339Z,99302.97
2022-11-05T19:29:58.374Z,99305.56
2022-11-05T19:32:28.028Z,99305.34
2022-11-05T19:34:55.793Z,99310.81
2022-11-05T19:37:24.308Z,99305.25
2022-11-05T19:39:56.481Z,99308.47
2022-11-05T19:42:25.968Z,99307.06
2022-11-05T19:44:55.213Z,99308.63
2022-11-05T19:47:26.125Z,99311.13
2022-11-05T19:49:56.478Z,99307.09
2022-11-05T19:52:28.773Z,99312.31
2022-11-05T19:55:03.702Z,99315.53
2022-11-05T19:57:36.977Z,99318.97
2022-11-05T20:00:06.540Z,99310.66
2022-11-05T20:02:36.128Z,99307.69
2022-11-05T20:05:04.356Z,99321.13
2022-11-05T20:07:32.811Z,99315.19
2022-11-05T20:10:01.170Z,99320.78
2022-11-05T20:12:34.570Z,99320.41
2022-11-05T20:15:05.060Z,99327.56
2022-11-05T20:17:35.908Z,99319.25
2022-11-05T20:20:05.045Z,99321.00
2022-11-05T20:22:35.850Z,99317.44
2022-11-05T20:25:07.515Z,99314.47
2022-11-05T20:27:35.479Z,99313.84
2022-11-05T20:30:07.333Z,99315.41
2022-11-05T20:32:35.041Z,99314.97
2022-11-05T20:35:05.930Z,99318.50
2022-11-05T20:37:34.475Z,99330.19
2022-11-05T20:40:01.992Z,99329.81
2022-11-05T20:42:31.521Z,99329.81
2022-11-05T20:45:01.956Z,99336.09
2022-11-05T20:47:30.255Z,99318.94
2022-11-05T20:50:00.947Z,99327.97
2022-11-05T20:52:30.543Z,99330.94
2022-11-05T20:55:00.070Z,99322.06
2022-11-05T20:57:32.804Z,99324.94
2022-11-05T21:00:03.084Z,99329.19
2022-11-05T21:02:37.080Z,99338.81
2022-11-05T21:05:08.667Z,99329.19
2022-11-05T21:07:51.428Z,99328.94
2022-11-05T21:10:21.732Z,99335.00
2022-11-05T21:12:51.971Z,99334.63
2022-11-05T21:15:24.194Z,99336.56
2022-11-05T21:17:52.378Z,99340.72
2022-11-05T21:20:22.343Z,99332.53
2022-11-05T21:22:53.637Z,99337.84
2022-11-05T21:25:25.445Z,99335.63
2022-11-05T21:27:55.668Z,99338.50
2022-11-05T21:30:25.124Z,99345.63
2022-11-05T21:32:54.530Z,99339.31
2022-11-05T21:35:22.116Z,99333.28
2022-11-05T21:37:51.842Z,99335.03
2022-11-05T21:40:19.075Z,99340.03
2022-11-05T21:42:46.685Z,99331.91
2022-11-05T21:45:16.602Z,99341.09
2022-11-05T21:47:46.920Z,99342.78
2022-11-05T21:50:21.727Z,99337.19
2022-11-05T21:53:10.259Z,99339.91
2022-11-05T21:56:00.714Z,99338.72
2022-11-05T21:58:48.561Z,99332.69
2022-11-05T22:01:17.442Z,99334.44
2022-11-05T22:03:46.061Z,99333.00
2022-11-05T22:06:17.824Z,99335.63
2022-11-05T22:08:47.194Z,99329.19
2022-11-05T22:11:14.353Z,99325.03
2022-11-05T22:13:42.609Z,99323.13
2022-11-05T22:16:15.986Z,99328.00
2022-11-05T22:18:47.175Z,99325.13
2022-11-05T22:21:19.944Z,99320.38
2022-11-05T22:23:47.867Z,99316.69
2022-11-05T22:26:18.021Z,99321.09
2022-11-05T22:28:45.461Z,99319.28
2022-11-05T22:31:18.016Z,99324.88
2022-11-05T22:33:52.321Z,99323.34
2022-11-05T22:36:20.713Z,99332.16
2022-11-05T22:38:52.545Z,99337.03
2022-11-05T22:41:23.498Z,99340.50
2022-11-05T22:43:51.381Z,99335.97
2022-11-05T22:46:26.405Z,99347.75
2022-11-05T22:48:58.711Z,99345.34
2022-11-05T22:51:35.056Z,99349.16
2022-11-05T22:54:09.704Z,99348.94
2022-11-05T22:56:41.953Z,99341.09
2022-11-05T22:59:13.808Z,99344.19
2022-11-05T23:01:45.561Z,99339.66
2022-11-05T23:04:19.100Z,99332.41
2022-11-05T23:07:08.215Z,99335.72
2022-11-05T23:09:59.214Z,99330.13
2022-11-05T23:12:40.358Z,99343.69
2022-11-05T23:15:43.138Z,99340.50
2022-11-05T23:18:36.082Z,99333.47
2022-11-05T23:21:42.546Z,99335.72
2022-11-05T23:24:16.139Z,99332.50
2022-11-05T23:26:50.784Z,99316.78
2022-11-05T23:29:24.250Z,99319.91
2022-11-05T23:32:12.094Z,99317.53
2022-11-05T23:34:39.928Z,99305.19
2022-11-05T23:37:26.599Z,99304.94
2022-11-05T23:39:54.265Z,99299.72
2022-11-05T23:42:42.714Z,99295.56
2022-11-05T23:45:30.217Z,99306.84
2022-11-05T23:48:17.499Z,99311.00
2022-11-05T23:51:12.252Z,99311.00
2022-11-05T23:53:45.491Z,99304.94
2022-11-05T23:56:16.571Z,99304.81
2022-11-05T23:58:47.310Z,99300.63
